sensor_id;sensor_type;location;lat;lon;timestamp;temperature;humidity
9941;DHT22;5009;50.656;7.188;2024-01-30T05:02:18;6.40;99.90
9941;DHT22;5009;50.656;7.188;2024-01-30T05:04:44;6.30;99.90
9941;DHT22;5009;50.656;7.188;2024-01-30T05:07:09;6.30;99.90
9941;DHT22;5009;50.656;7.188;2024-01-30T05:09:35;6.30;99.90
9941;DHT22;5009;50.656;7.188;2024-01-30T05:12:00;6.30;99.90
9941;DHT22;5009;50.656;7.188;2024-01-30T05:14:26;6.30;99.90
9941;DHT22;5009;50.656;7.188;2024-01-30T05:16:51;6.30;99.90
9941;DHT22;5009;50.656;7.188;2024-01-30T05:19:17;6.30;99.90
9941;DHT22;5009;50.656;7.188;2024-01-30T05:21:43;6.30;99.90
9941;DHT22;5009;50.656;7.188;2024-01-30T05:24:08;6.20;99.90
9941;DHT22;5009;50.656;7.188;2024-01-30T05:26:35;6.20;99.90
9941;DHT22;5009;50.656;7.188;2024-01-30T05:29:01;6.30;99.90
9941;DHT22;5009;50.656;7.188;2024-01-30T05:31:26;6.30;99.90
9941;DHT22;5009;50.656;7.188;2024-01-30T05:33:52;6.30;99.90
9941;DHT22;5009;50.656;7.188;2024-01-30T05:36:18;6.30;99.90
9941;DHT22;5009;50.656;7.188;2024-01-30T05:38:43;6.40;99.90
9941;DHT22;5009;50.656;7.188;2024-01-30T05:41:09;6.40;99.90
9941;DHT22;5009;50.656;7.188;2024-01-30T05:43:35;6.30;99.90
9941;DHT22;5009;50.656;7.188;2024-01-30T05:46:00;6.30;99.90
9941;DHT22;5009;50.656;7.188;2024-01-30T05:48:26;6.30;99.90
9941;DHT22;5009;50.656;7.188;2024-01-30T05:50:51;6.30;99.90
9941;DHT22;5009;50.656;7.188;2024-01-30T05:53:17;6.40;99.90
9941;DHT22;5009;50.656;7.188;2024-01-30T05:55:42;6.30;99.90
9941;DHT22;5009;50.656;7.188;2024-01-30T05:58:08;6.30;99.90
9941;DHT22;5009;50.656;7.188;2024-01-30T06:00:33;6.40;99.90
9941;DHT22;5009;50.656;7.188;2024-01-30T06:02:59;6.40;99.90
9941;DHT22;5009;50.656;7.188;2024-01-30T06:05:24;6.30;99.90
9941;DHT22;5009;50.656;7.188;2024-01-30T06:07:50;6.40;99.90
9941;DHT22;5009;50.656;7.188;2024-01-30T06:10:15;6.40;99.90
9941;DHT22;5009;50.656;7.188;2024-01-30T06:12:41;6.30;99.90
9941;DHT22;5009;50.656;7.188;2024-01-30T06:15:07;6.30;99.90
9941;DHT22;5009;50.656;7.188;2024-01-30T06:17:32;6.20;99.90
9941;DHT22;5009;50.656;7.188;2024-01-30T06:19:58;6.20;99.90
9941;DHT22;5009;50.656;7.188;2024-01-30T06:22:24;6.10;99.90
9941;DHT22;5009;50.656;7.188;2024-01-30T06:24:50;6.10;99.90
9941;DHT22;5009;50.656;7.188;2024-01-30T06:27:15;6.10;99.90
9941;DHT22;5009;50.656;7.188;2024-01-30T06:29:42;6.10;99.90
9941;DHT22;5009;50.656;7.188;2024-01-30T06:32:08;6.10;99.90
9941;DHT22;5009;50.656;7.188;2024-01-30T06:34:34;6.20;99.90
9941;DHT22;5009;50.656;7.188;2024-01-30T06:37:00;6.20;99.90
9941;DHT22;5009;50.656;7.188;2024-01-30T06:39:26;6.20;99.90
9941;DHT22;5009;50.656;7.188;2024-01-30T06:41:52;6.20;99.90
9941;DHT22;5009;50.656;7.188;2024-01-30T06:44:17;6.20;99.90
9941;DHT22;5009;50.656;7.188;2024-01-30T06:46:43;6.20;99.90
9941;DHT22;5009;50.656;7.188;2024-01-30T06:49:08;6.10;99.90
9941;DHT22;5009;50.656;7.188;2024-01-30T06:51:34;6.20;99.90
9941;DHT22;5009;50.656;7.188;2024-01-30T06:53:59;6.10;99.90
9941;DHT22;5009;50.656;7.188;2024-01-30T06:56:25;6.20;99.90
9941;DHT22;5009;50.656;7.188;2024-01-30T06:58:51;6.20;99.90
9941;DHT22;5009;50.656;7.188;2024-01-30T07:01:16;6.20;99.90
9941;DHT22;5009;50.656;7.188;2024-01-30T07:03:42;6.20;99.90
9941;DHT22;5009;50.656;7.188;2024-01-30T07:06:08;6.20;99.90
9941;DHT22;5009;50.656;7.188;2024-01-30T07:08:34;6.10;99.90
9941;DHT22;5009;50.656;7.188;2024-01-30T07:11:00;6.20;99.90
9941;DHT22;5009;50.656;7.188;2024-01-30T07:13:25;6.20;99.90
9941;DHT22;5009;50.656;7.188;2024-01-30T07:15:51;6.20;99.90
9941;DHT22;5009;50.656;7.188;2024-01-30T07:18:16;6.10;99.90
9941;DHT22;5009;50.656;7.188;2024-01-30T07:20:42;6.10;99.90
9941;DHT22;5009;50.656;7.188;2024-01-30T07:23:15;6.10;99.90
9941;DHT22;5009;50.656;7.188;2024-01-30T07:25:44;6.00;99.90
9941;DHT22;5009;50.656;7.188;2024-01-30T07:28:10;5.90;99.90
9941;DHT22;5009;50.656;7.188;2024-01-30T07:30:36;5.90;99.90
9941;DHT22;5009;50.656;7.188;2024-01-30T07:33:02;5.90;99.90
9941;DHT22;5009;50.656;7.188;2024-01-30T07:35:27;5.90;99.90
9941;DHT22;5009;50.656;7.188;2024-01-30T07:37:53;5.90;99.90
9941;DHT22;5009;50.656;7.188;2024-01-30T07:40:18;5.90;99.90
9941;DHT22;5009;50.656;7.188;2024-01-30T07:42:44;6.00;99.90
9941;DHT22;5009;50.656;7.188;2024-01-30T07:45:09;6.10;99.90
9941;DHT22;5009;50.656;7.188;2024-01-30T07:47:35;6.10;99.90
9941;DHT22;5009;50.656;7.188;2024-01-30T07:50:01;6.10;99.90
9941;DHT22;5009;50.656;7.188;2024-01-30T07:52:26;6.00;99.90
9941;DHT22;5009;50.656;7.188;2024-01-30T07:54:52;6.10;99.90
9941;DHT22;5009;50.656;7.188;2024-01-30T07:57:18;6.10;99.90
9941;DHT22;5009;50.656;7.188;2024-01-30T07:59:44;6.10;99.90
9941;DHT22;5009;50.656;7.188;2024-01-30T08:02:13;6.10;99.90
9941;DHT22;5009;50.656;7.188;2024-01-30T08:04:38;6.20;99.90
9941;DHT22;5009;50.656;7.188;2024-01-30T08:07:04;6.20;99.90
9941;DHT22;5009;50.656;7.188;2024-01-30T08:09:30;6.30;99.90
9941;DHT22;5009;50.656;7.188;2024-01-30T08:11:55;6.40;99.90
9941;DHT22;5009;50.656;7.188;2024-01-30T08:14:21;6.50;99.90
9941;DHT22;5009;50.656;7.188;2024-01-30T08:16:46;6.60;99.90
9941;DHT22;5009;50.656;7.188;2024-01-30T08:19:12;6.50;99.90
9941;DHT22;5009;50.656;7.188;2024-01-30T08:21:37;6.60;99.90
9941;DHT22;5009;50.656;7.188;2024-01-30T08:24:04;6.60;99.90
9941;DHT22;5009;50.656;7.188;2024-01-30T08:26:30;6.60;99.90
9941;DHT22;5009;50.656;7.188;2024-01-30T08:28:56;6.60;99.90
9941;DHT22;5009;50.656;7.188;2024-01-30T08:31:21;6.60;99.90
9941;DHT22;5009;50.656;7.188;2024-01-30T08:33:47;6.80;99.90
9941;DHT22;5009;50.656;7.188;2024-01-30T08:36:12;6.80;99.90
9941;DHT22;5009;50.656;7.188;2024-01-30T08:38:38;6.80;99.90
9941;DHT22;5009;50.656;7.188;2024-01-30T08:41:04;6.80;99.90
9941;DHT22;5009;50.656;7.188;2024-01-30T08:43:30;6.80;99.90
9941;DHT22;5009;50.656;7.188;2024-01-30T08:45:58;6.80;99.90
9941;DHT22;5009;50.656;7.188;2024-01-30T08:48:24;6.80;99.90
9941;DHT22;5009;50.656;7.188;2024-01-30T08:50:50;6.80;99.90
9941;DHT22;5009;50.656;7.188;2024-01-30T08:53:16;6.80;99.90
9941;DHT22;5009;50.656;7.188;2024-01-30T08:55:41;6.90;99.90
9941;DHT22;5009;50.656;7.188;2024-01-30T08:58:07;7.00;99.90
9941;DHT22;5009;50.656;7.188;2024-01-30T09:00:33;7.00;99.90
9941;DHT22;5009;50.656;7.188;2024-01-30T09:02:58;7.10;99.90
9941;DHT22;5009;50.656;7.188;2024-01-30T09:05:24;7.10;99.90
9941;DHT22;5009;50.656;7.188;2024-01-30T09:07:50;7.20;99.90
9941;DHT22;5009;50.656;7.188;2024-01-30T09:10:15;7.20;99.90
9941;DHT22;5009;50.656;7.188;2024-01-30T09:12:41;7.20;99.90
9941;DHT22;5009;50.656;7.188;2024-01-30T09:15:07;7.30;99.90
9941;DHT22;5009;50.656;7.188;2024-01-30T09:17:32;7.40;99.90
9941;DHT22;5009;50.656;7.188;2024-01-30T09:19:58;7.60;99.90
9941;DHT22;5009;50.656;7.188;2024-01-30T09:22:24;7.70;99.90
9941;DHT22;5009;50.656;7.188;2024-01-30T09:24:50;7.70;99.90
9941;DHT22;5009;50.656;7.188;2024-01-30T09:27:15;7.80;99.90
9941;DHT22;5009;50.656;7.188;2024-01-30T09:29:41;7.90;99.90
9941;DHT22;5009;50.656;7.188;2024-01-30T09:32:06;8.10;99.90
9941;DHT22;5009;50.656;7.188;2024-01-30T09:34:32;8.20;99.90
9941;DHT22;5009;50.656;7.188;2024-01-30T09:36:59;8.40;99.90
9941;DHT22;5009;50.656;7.188;2024-01-30T09:39:25;8.40;99.90
9941;DHT22;5009;50.656;7.188;2024-01-30T09:42:11;8.30;99.90
9941;DHT22;5009;50.656;7.188;2024-01-30T09:44:38;8.50;99.90
9941;DHT22;5009;50.656;7.188;2024-01-30T09:47:04;8.70;99.90
9941;DHT22;5009;50.656;7.188;2024-01-30T09:49:32;8.80;99.90
9941;DHT22;5009;50.656;7.188;2024-01-30T09:51:58;9.00;99.90
9941;DHT22;5009;50.656;7.188;2024-01-30T09:54:24;9.10;99.90
9941;DHT22;5009;50.656;7.188;2024-01-30T09:56:49;9.30;99.90
9941;DHT22;5009;50.656;7.188;2024-01-30T09:59:15;9.40;99.90
9941;DHT22;5009;50.656;7.188;2024-01-30T10:01:41;9.60;99.90
9941;DHT22;5009;50.656;7.188;2024-01-30T10:04:07;9.80;99.90
9941;DHT22;5009;50.656;7.188;2024-01-30T10:06:33;9.90;99.90
9941;DHT22;5009;50.656;7.188;2024-01-30T10:08:59;9.90;99.90
9941;DHT22;5009;50.656;7.188;2024-01-30T10:11:25;9.90;99.90
9941;DHT22;5009;50.656;7.188;2024-01-30T10:13:50;9.80;99.90
9941;DHT22;5009;50.656;7.188;2024-01-30T10:16:16;9.80;99.90
9941;DHT22;5009;50.656;7.188;2024-01-30T10:18:42;9.90;99.90
9941;DHT22;5009;50.656;7.188;2024-01-30T10:21:08;9.80;99.90
9941;DHT22;5009;50.656;7.188;2024-01-30T10:23:34;9.80;99.90
9941;DHT22;5009;50.656;7.188;2024-01-30T10:26:00;9.80;99.90
9941;DHT22;5009;50.656;7.188;2024-01-30T10:28:27;9.60;99.90
9941;DHT22;5009;50.656;7.188;2024-01-30T10:31:01;9.60;99.90
9941;DHT22;5009;50.656;7.188;2024-01-30T10:33:29;9.70;99.90
9941;DHT22;5009;50.656;7.188;2024-01-30T10:36:01;9.70;99.90
9941;DHT22;5009;50.656;7.188;2024-01-30T10:38:32;9.80;99.90
9941;DHT22;5009;50.656;7.188;2024-01-30T10:40:58;9.90;99.90
9941;DHT22;5009;50.656;7.188;2024-01-30T10:43:35;9.90;99.90
9941;DHT22;5009;50.656;7.188;2024-01-30T10:46:10;9.90;99.90
9941;DHT22;5009;50.656;7.188;2024-01-30T10:48:42;9.90;99.90
9941;DHT22;5009;50.656;7.188;2024-01-30T10:51:10;9.90;99.90
9941;DHT22;5009;50.656;7.188;2024-01-30T10:53:36;9.80;99.90
9941;DHT22;5009;50.656;7.188;2024-01-30T10:56:03;9.90;99.90
9941;DHT22;5009;50.656;7.188;2024-01-30T10:58:29;9.80;99.90
9941;DHT22;5009;50.656;7.188;2024-01-30T11:00:55;9.80;99.90
9941;DHT22;5009;50.656;7.188;2024-01-30T11:03:21;9.90;99.90
9941;DHT22;5009;50.656;7.188;2024-01-30T11:05:51;9.80;99.90
9941;DHT22;5009;50.656;7.188;2024-01-30T11:08:27;9.80;99.90
9941;DHT22;5009;50.656;7.188;2024-01-30T11:10:56;9.80;99.90
9941;DHT22;5009;50.656;7.188;2024-01-30T11:13:29;9.80;99.90
9941;DHT22;5009;50.656;7.188;2024-01-30T11:15:54;9.70;99.90
9941;DHT22;5009;50.656;7.188;2024-01-30T11:18:24;9.70;99.90
9941;DHT22;5009;50.656;7.188;2024-01-30T11:20:50;9.70;99.90
9941;DHT22;5009;50.656;7.188;2024-01-30T11:23:16;9.60;99.90
9941;DHT22;5009;50.656;7.188;2024-01-30T11:25:44;9.60;99.90
9941;DHT22;5009;50.656;7.188;2024-01-30T11:28:16;9.60;99.90
9941;DHT22;5009;50.656;7.188;2024-01-30T11:30:42;9.50;99.90
9941;DHT22;5009;50.656;7.188;2024-01-30T11:33:12;9.50;99.90
9941;DHT22;5009;50.656;7.188;2024-01-30T11:35:42;9.50;99.90
9941;DHT22;5009;50.656;7.188;2024-01-30T11:38:09;9.50;99.90
9941;DHT22;5009;50.656;7.188;2024-01-30T11:40:37;9.50;99.90
9941;DHT22;5009;50.656;7.188;2024-01-30T11:43:04;9.60;99.90
9941;DHT22;5009;50.656;7.188;2024-01-30T11:45:30;9.60;99.90
9941;DHT22;5009;50.656;7.188;2024-01-30T11:47:56;9.70;99.90
9941;DHT22;5009;50.656;7.188;2024-01-30T11:50:23;9.70;99.90
9941;DHT22;5009;50.656;7.188;2024-01-30T11:52:50;9.70;99.90
9941;DHT22;5009;50.656;7.188;2024-01-30T11:55:15;9.80;99.90
9941;DHT22;5009;50.656;7.188;2024-01-30T11:57:41;9.80;99.90
9941;DHT22;5009;50.656;7.188;2024-01-30T12:00:14;9.80;99.90
9941;DHT22;5009;50.656;7.188;2024-01-30T12:02:40;9.80;99.90
9941;DHT22;5009;50.656;7.188;2024-01-30T12:05:07;9.80;99.90
9941;DHT22;5009;50.656;7.188;2024-01-30T12:07:33;9.90;99.90
9941;DHT22;5009;50.656;7.188;2024-01-30T12:09:59;10.00;99.90
9941;DHT22;5009;50.656;7.188;2024-01-30T12:12:28;10.10;99.90
9941;DHT22;5009;50.656;7.188;2024-01-30T12:14:55;10.10;99.90
9941;DHT22;5009;50.656;7.188;2024-01-30T12:17:32;10.10;99.90
9941;DHT22;5009;50.656;7.188;2024-01-30T12:20:15;10.10;99.90
9941;DHT22;5009;50.656;7.188;2024-01-30T12:22:42;10.20;99.90
9941;DHT22;5009;50.656;7.188;2024-01-30T12:25:12;10.30;99.90
9941;DHT22;5009;50.656;7.188;2024-01-30T12:27:39;10.40;99.90
9941;DHT22;5009;50.656;7.188;2024-01-30T12:30:09;10.60;99.90
9941;DHT22;5009;50.656;7.188;2024-01-30T12:32:36;10.70;99.90
9941;DHT22;5009;50.656;7.188;2024-01-30T12:35:02;10.80;99.90
9941;DHT22;5009;50.656;7.188;2024-01-30T12:37:27;10.80;99.90
9941;DHT22;5009;50.656;7.188;2024-01-30T12:39:54;10.60;99.90
9941;DHT22;5009;50.656;7.188;2024-01-30T12:42:20;10.60;99.90
9941;DHT22;5009;50.656;7.188;2024-01-30T12:44:50;10.60;99.90
9941;DHT22;5009;50.656;7.188;2024-01-30T12:47:15;10.60;99.90
9941;DHT22;5009;50.656;7.188;2024-01-30T12:49:43;10.60;99.90
9941;DHT22;5009;50.656;7.188;2024-01-30T12:52:09;10.70;99.90
9941;DHT22;5009;50.656;7.188;2024-01-30T12:54:35;10.70;99.90
9941;DHT22;5009;50.656;7.188;2024-01-30T12:57:01;10.70;99.90
9941;DHT22;5009;50.656;7.188;2024-01-30T12:59:26;10.70;99.90
9941;DHT22;5009;50.656;7.188;2024-01-30T13:01:52;10.80;99.90
9941;DHT22;5009;50.656;7.188;2024-01-30T13:04:17;10.80;99.90
9941;DHT22;5009;50.656;7.188;2024-01-30T13:06:43;10.80;99.90
9941;DHT22;5009;50.656;7.188;2024-01-30T13:09:08;10.80;99.90
9941;DHT22;5009;50.656;7.188;2024-01-30T13:11:34;10.70;99.90
9941;DHT22;5009;50.656;7.188;2024-01-30T13:14:00;10.70;99.90
9941;DHT22;5009;50.656;7.188;2024-01-30T13:16:25;10.80;99.90
9941;DHT22;5009;50.656;7.188;2024-01-30T13:18:51;10.90;99.90
9941;DHT22;5009;50.656;7.188;2024-01-30T13:21:17;10.90;99.90
9941;DHT22;5009;50.656;7.188;2024-01-30T13:23:42;10.70;99.90
9941;DHT22;5009;50.656;7.188;2024-01-30T13:26:08;10.70;99.90
9941;DHT22;5009;50.656;7.188;2024-01-30T13:28:34;10.50;99.90
9941;DHT22;5009;50.656;7.188;2024-01-30T13:30:59;10.60;99.90
9941;DHT22;5009;50.656;7.188;2024-01-30T13:33:25;10.50;99.90
9941;DHT22;5009;50.656;7.188;2024-01-30T13:35:51;10.60;99.90
9941;DHT22;5009;50.656;7.188;2024-01-30T13:38:16;10.60;99.90
9941;DHT22;5009;50.656;7.188;2024-01-30T13:40:42;10.50;99.90
9941;DHT22;5009;50.656;7.188;2024-01-30T13:43:08;10.60;99.90
9941;DHT22;5009;50.656;7.188;2024-01-30T13:45:33;10.60;99.90
9941;DHT22;5009;50.656;7.188;2024-01-30T13:47:59;10.70;99.90
9941;DHT22;5009;50.656;7.188;2024-01-30T13:50:24;10.70;99.90
9941;DHT22;5009;50.656;7.188;2024-01-30T13:52:50;10.60;99.90
9941;DHT22;5009;50.656;7.188;2024-01-30T13:55:15;10.50;99.90
9941;DHT22;5009;50.656;7.188;2024-01-30T13:57:41;10.60;99.90
9941;DHT22;5009;50.656;7.188;2024-01-30T14:00:07;10.60;99.90
9941;DHT22;5009;50.656;7.188;2024-01-30T14:02:33;10.60;99.90
9941;DHT22;5009;50.656;7.188;2024-01-30T14:04:59;10.70;99.90
9941;DHT22;5009;50.656;7.188;2024-01-30T14:07:24;10.70;99.90
9941;DHT22;5009;50.656;7.188;2024-01-30T14:09:50;10.70;99.90
9941;DHT22;5009;50.656;7.188;2024-01-30T14:12:16;10.70;99.90
9941;DHT22;5009;50.656;7.188;2024-01-30T14:14:41;10.70;99.90
9941;DHT22;5009;50.656;7.188;2024-01-30T14:17:07;10.80;99.90
9941;DHT22;5009;50.656;7.188;2024-01-30T14:19:36;10.90;99.90
9941;DHT22;5009;50.656;7.188;2024-01-30T14:22:02;11.00;99.90
9941;DHT22;5009;50.656;7.188;2024-01-30T14:24:27;11.10;99.90
9941;DHT22;5009;50.656;7.188;2024-01-30T14:26:53;11.00;99.90
9941;DHT22;5009;50.656;7.188;2024-01-30T14:29:19;11.10;99.90
9941;DHT22;5009;50.656;7.188;2024-01-30T14:31:44;11.10;99.90
9941;DHT22;5009;50.656;7.188;2024-01-30T14:34:10;11.10;99.90
9941;DHT22;5009;50.656;7.188;2024-01-30T14:36:37;11.00;99.90
9941;DHT22;5009;50.656;7.188;2024-01-30T14:39:03;11.00;99.90
9941;DHT22;5009;50.656;7.188;2024-01-30T14:41:29;10.80;99.90
9941;DHT22;5009;50.656;7.188;2024-01-30T14:43:54;10.70;99.90
9941;DHT22;5009;50.656;7.188;2024-01-30T14:46:20;10.70;99.90
9941;DHT22;5009;50.656;7.188;2024-01-30T14:48:47;10.60;99.90
9941;DHT22;5009;50.656;7.188;2024-01-30T14:51:12;10.60;99.90
9941;DHT22;5009;50.656;7.188;2024-01-30T14:53:39;10.60;99.90
9941;DHT22;5009;50.656;7.188;2024-01-30T14:56:05;10.60;99.90
9941;DHT22;5009;50.656;7.188;2024-01-30T14:58:31;10.50;99.90
9941;DHT22;5009;50.656;7.188;2024-01-30T15:00:56;10.50;99.90
9941;DHT22;5009;50.656;7.188;2024-01-30T15:03:22;10.50;99.90
9941;DHT22;5009;50.656;7.188;2024-01-30T15:05:47;10.60;99.90
9941;DHT22;5009;50.656;7.188;2024-01-30T15:08:13;10.70;99.90
9941;DHT22;5009;50.656;7.188;2024-01-30T15:10:39;10.70;99.90
9941;DHT22;5009;50.656;7.188;2024-01-30T15:13:04;10.70;99.90
9941;DHT22;5009;50.656;7.188;2024-01-30T15:15:30;10.70;99.90
9941;DHT22;5009;50.656;7.188;2024-01-30T15:17:56;10.70;99.90
9941;DHT22;5009;50.656;7.188;2024-01-30T15:20:23;10.70;99.90
9941;DHT22;5009;50.656;7.188;2024-01-30T15:22:49;10.80;99.90
9941;DHT22;5009;50.656;7.188;2024-01-30T15:25:14;10.70;99.90
9941;DHT22;5009;50.656;7.188;2024-01-30T15:27:40;10.80;99.90
9941;DHT22;5009;50.656;7.188;2024-01-30T15:30:06;10.80;99.90
9941;DHT22;5009;50.656;7.188;2024-01-30T15:32:32;10.80;99.90
9941;DHT22;5009;50.656;7.188;2024-01-30T15:34:59;10.70;99.90
9941;DHT22;5009;50.656;7.188;2024-01-30T15:37:28;10.70;99.90
9941;DHT22;5009;50.656;7.188;2024-01-30T15:39:53;10.70;99.90
9941;DHT22;5009;50.656;7.188;2024-01-30T15:42:19;10.70;99.90
9941;DHT22;5009;50.656;7.188;2024-01-30T15:44:45;10.60;99.90
9941;DHT22;5009;50.656;7.188;2024-01-30T15:47:10;10.60;99.90
9941;DHT22;5009;50.656;7.188;2024-01-30T15:49:36;10.50;99.90
9941;DHT22;5009;50.656;7.188;2024-01-30T15:52:01;10.50;99.90
9941;DHT22;5009;50.656;7.188;2024-01-30T15:54:27;10.50;99.90
9941;DHT22;5009;50.656;7.188;2024-01-30T15:56:52;10.60;99.90
9941;DHT22;5009;50.656;7.188;2024-01-30T15:59:18;10.50;99.90
9941;DHT22;5009;50.656;7.188;2024-01-30T16:01:43;10.50;99.90
9941;DHT22;5009;50.656;7.188;2024-01-30T16:04:17;10.50;99.90
9941;DHT22;5009;50.656;7.188;2024-01-30T16:06:42;10.50;99.90
9941;DHT22;5009;50.656;7.188;2024-01-30T16:09:08;10.40;99.90
9941;DHT22;5009;50.656;7.188;2024-01-30T16:11:36;10.40;99.90
9941;DHT22;5009;50.656;7.188;2024-01-30T16:14:02;10.40;99.90
9941;DHT22;5009;50.656;7.188;2024-01-30T16:16:27;10.40;99.90
9941;DHT22;5009;50.656;7.188;2024-01-30T16:18:54;10.40;99.90
9941;DHT22;5009;50.656;7.188;2024-01-30T16:21:19;10.40;99.90
9941;DHT22;5009;50.656;7.188;2024-01-30T16:23:45;10.40;99.90
9941;DHT22;5009;50.656;7.188;2024-01-30T16:26:11;10.40;99.90
9941;DHT22;5009;50.656;7.188;2024-01-30T16:28:36;10.40;99.90
9941;DHT22;5009;50.656;7.188;2024-01-30T16:31:02;10.50;99.90
9941;DHT22;5009;50.656;7.188;2024-01-30T16:33:29;10.50;99.90
9941;DHT22;5009;50.656;7.188;2024-01-30T16:35:55;10.50;99.90
9941;DHT22;5009;50.656;7.188;2024-01-30T16:38:20;10.50;99.90
9941;DHT22;5009;50.656;7.188;2024-01-30T16:40:46;10.50;99.90
9941;DHT22;5009;50.656;7.188;2024-01-30T16:43:12;10.50;99.90
9941;DHT22;5009;50.656;7.188;2024-01-30T16:45:37;10.40;99.90
9941;DHT22;5009;50.656;7.188;2024-01-30T16:48:03;10.40;99.90
9941;DHT22;5009;50.656;7.188;2024-01-30T16:50:29;10.40;99.90
9941;DHT22;5009;50.656;7.188;2024-01-30T16:52:55;10.50;99.90
9941;DHT22;5009;50.656;7.188;2024-01-30T16:55:20;10.40;99.90
9941;DHT22;5009;50.656;7.188;2024-01-30T16:57:47;10.40;99.90
9941;DHT22;5009;50.656;7.188;2024-01-30T17:00:13;10.40;99.90
9941;DHT22;5009;50.656;7.188;2024-01-30T17:02:40;10.50;99.90
9941;DHT22;5009;50.656;7.188;2024-01-30T17:05:06;10.40;99.90
9941;DHT22;5009;50.656;7.188;2024-01-30T17:07:32;10.40;99.90
9941;DHT22;5009;50.656;7.188;2024-01-30T17:10:01;10.40;99.90
9941;DHT22;5009;50.656;7.188;2024-01-30T17:12:27;10.40;99.90
9941;DHT22;5009;50.656;7.188;2024-01-30T17:14:53;10.40;99.90
9941;DHT22;5009;50.656;7.188;2024-01-30T17:17:19;10.40;99.90
9941;DHT22;5009;50.656;7.188;2024-01-30T17:19:45;10.50;99.90
9941;DHT22;5009;50.656;7.188;2024-01-30T17:22:11;10.40;99.90
9941;DHT22;5009;50.656;7.188;2024-01-30T17:24:38;10.40;99.90
9941;DHT22;5009;50.656;7.188;2024-01-30T17:27:04;10.50;99.90
9941;DHT22;5009;50.656;7.188;2024-01-30T17:29:29;10.50;99.90
9941;DHT22;5009;50.656;7.188;2024-01-30T17:31:55;10.40;99.90
9941;DHT22;5009;50.656;7.188;2024-01-30T17:34:20;10.50;99.90
9941;DHT22;5009;50.656;7.188;2024-01-30T17:36:49;10.50;99.90
9941;DHT22;5009;50.656;7.188;2024-01-30T17:39:15;10.50;99.90
9941;DHT22;5009;50.656;7.188;2024-01-30T17:41:41;10.50;99.90
9941;DHT22;5009;50.656;7.188;2024-01-30T17:44:06;10.60;99.90
9941;DHT22;5009;50.656;7.188;2024-01-30T17:46:32;10.60;99.90
9941;DHT22;5009;50.656;7.188;2024-01-30T17:48:58;10.70;99.90
9941;DHT22;5009;50.656;7.188;2024-01-30T17:51:23;10.70;99.90
9941;DHT22;5009;50.656;7.188;2024-01-30T17:53:49;10.70;99.90
9941;DHT22;5009;50.656;7.188;2024-01-30T17:56:17;10.60;99.90
9941;DHT22;5009;50.656;7.188;2024-01-30T17:58:43;10.60;99.90
9941;DHT22;5009;50.656;7.188;2024-01-30T18:01:09;10.60;99.90
9941;DHT22;5009;50.656;7.188;2024-01-30T18:03:36;10.60;99.90
9941;DHT22;5009;50.656;7.188;2024-01-30T18:06:02;10.60;99.90
9941;DHT22;5009;50.656;7.188;2024-01-30T18:08:28;10.60;99.90
9941;DHT22;5009;50.656;7.188;2024-01-30T18:10:53;10.60;99.90
9941;DHT22;5009;50.656;7.188;2024-01-30T18:13:20;10.60;99.90
9941;DHT22;5009;50.656;7.188;2024-01-30T18:15:45;10.60;99.90
9941;DHT22;5009;50.656;7.188;2024-01-30T18:18:11;10.60;99.90
9941;DHT22;5009;50.656;7.188;2024-01-30T18:20:38;10.60;99.90
9941;DHT22;5009;50.656;7.188;2024-01-30T18:23:04;10.60;99.90
9941;DHT22;5009;50.656;7.188;2024-01-30T18:25:29;10.50;99.90
9941;DHT22;5009;50.656;7.188;2024-01-30T18:27:56;10.50;99.90
9941;DHT22;5009;50.656;7.188;2024-01-30T18:30:22;10.50;99.90
9941;DHT22;5009;50.656;7.188;2024-01-30T18:32:47;10.50;99.90
9941;DHT22;5009;50.656;7.188;2024-01-30T18:35:14;10.50;99.90
9941;DHT22;5009;50.656;7.188;2024-01-30T18:37:40;10.50;99.90
9941;DHT22;5009;50.656;7.188;2024-01-30T18:40:06;10.50;99.90
9941;DHT22;5009;50.656;7.188;2024-01-30T18:42:31;10.50;99.90
9941;DHT22;5009;50.656;7.188;2024-01-30T18:44:57;10.50;99.90
9941;DHT22;5009;50.656;7.188;2024-01-30T18:47:23;10.50;99.90
9941;DHT22;5009;50.656;7.188;2024-01-30T18:49:49;10.50;99.90
9941;DHT22;5009;50.656;7.188;2024-01-30T18:52:17;10.50;99.90
9941;DHT22;5009;50.656;7.188;2024-01-30T18:54:42;10.50;99.90
9941;DHT22;5009;50.656;7.188;2024-01-30T18:57:08;10.50;99.90
9941;DHT22;5009;50.656;7.188;2024-01-30T18:59:33;10.60;99.90
9941;DHT22;5009;50.656;7.188;2024-01-30T19:01:59;10.50;99.80
9941;DHT22;5009;50.656;7.188;2024-01-30T19:04:25;10.50;99.70
9941;DHT22;5009;50.656;7.188;2024-01-30T19:06:50;10.60;99.50
9941;DHT22;5009;50.656;7.188;2024-01-30T19:09:17;10.60;99.20
9941;DHT22;5009;50.656;7.188;2024-01-30T19:11:44;10.60;99.20
9941;DHT22;5009;50.656;7.188;2024-01-30T19:14:09;10.60;99.20
9941;DHT22;5009;50.656;7.188;2024-01-30T19:16:35;10.50;98.90
9941;DHT22;5009;50.656;7.188;2024-01-30T19:19:01;10.50;98.80
9941;DHT22;5009;50.656;7.188;2024-01-30T19:21:34;10.50;98.40
9941;DHT22;5009;50.656;7.188;2024-01-30T19:24:04;10.50;98.10
9941;DHT22;5009;50.656;7.188;2024-01-30T19:26:30;10.50;97.80
9941;DHT22;5009;50.656;7.188;2024-01-30T19:28:56;10.50;97.60
9941;DHT22;5009;50.656;7.188;2024-01-30T19:31:23;10.40;97.30
9941;DHT22;5009;50.656;7.188;2024-01-30T19:33:48;10.40;97.40
9941;DHT22;5009;50.656;7.188;2024-01-30T19:36:15;10.40;97.30
9941;DHT22;5009;50.656;7.188;2024-01-30T19:38:40;10.40;97.10
9941;DHT22;5009;50.656;7.188;2024-01-30T19:41:06;10.40;97.00
9941;DHT22;5009;50.656;7.188;2024-01-30T19:43:33;10.40;96.80
9941;DHT22;5009;50.656;7.188;2024-01-30T19:45:59;10.30;96.40
9941;DHT22;5009;50.656;7.188;2024-01-30T19:48:25;10.40;96.50
9941;DHT22;5009;50.656;7.188;2024-01-30T19:50:50;10.40;96.50
9941;DHT22;5009;50.656;7.188;2024-01-30T19:53:17;10.40;96.50
9941;DHT22;5009;50.656;7.188;2024-01-30T19:55:43;10.30;96.40
9941;DHT22;5009;50.656;7.188;2024-01-30T19:58:09;10.30;96.20
9941;DHT22;5009;50.656;7.188;2024-01-30T20:00:34;10.30;96.30
9941;DHT22;5009;50.656;7.188;2024-01-30T20:03:00;10.30;96.20
9941;DHT22;5009;50.656;7.188;2024-01-30T20:05:26;10.30;96.20
9941;DHT22;5009;50.656;7.188;2024-01-30T20:07:51;10.20;96.10
9941;DHT22;5009;50.656;7.188;2024-01-30T20:10:17;10.20;96.20
9941;DHT22;5009;50.656;7.188;2024-01-30T20:12:42;10.20;96.50
9941;DHT22;5009;50.656;7.188;2024-01-30T20:15:08;10.20;96.10
9941;DHT22;5009;50.656;7.188;2024-01-30T20:17:40;10.20;96.10
9941;DHT22;5009;50.656;7.188;2024-01-30T20:20:08;10.20;96.10
9941;DHT22;5009;50.656;7.188;2024-01-30T20:22:44;10.20;95.90
9941;DHT22;5009;50.656;7.188;2024-01-30T20:25:10;10.20;95.90
9941;DHT22;5009;50.656;7.188;2024-01-30T20:27:38;10.20;95.80
9941;DHT22;5009;50.656;7.188;2024-01-30T20:30:04;10.20;95.80
9941;DHT22;5009;50.656;7.188;2024-01-30T20:32:30;10.20;95.80
9941;DHT22;5009;50.656;7.188;2024-01-30T20:34:56;10.20;95.80
9941;DHT22;5009;50.656;7.188;2024-01-30T20:37:24;10.20;95.60
9941;DHT22;5009;50.656;7.188;2024-01-30T20:39:49;10.10;95.60
9941;DHT22;5009;50.656;7.188;2024-01-30T20:42:15;10.10;95.70
9941;DHT22;5009;50.656;7.188;2024-01-30T20:44:40;10.20;95.70
9941;DHT22;5009;50.656;7.188;2024-01-30T20:47:06;10.10;95.50
9941;DHT22;5009;50.656;7.188;2024-01-30T20:49:33;10.10;95.50
9941;DHT22;5009;50.656;7.188;2024-01-30T20:51:59;10.10;95.40
9941;DHT22;5009;50.656;7.188;2024-01-30T20:54:25;10.10;95.20
9941;DHT22;5009;50.656;7.188;2024-01-30T20:56:50;10.20;95.40
9941;DHT22;5009;50.656;7.188;2024-01-30T20:59:16;10.10;95.20
9941;DHT22;5009;50.656;7.188;2024-01-30T21:01:41;10.10;95.30
9941;DHT22;5009;50.656;7.188;2024-01-30T21:04:07;10.00;95.40